createdAt,value
2023-04-14T00:01:03.875Z,2.90
2023-04-14T00:03:31.133Z,2.92
2023-04-14T00:05:57.840Z,3.03
2023-04-14T00:08:24.312Z,3.42
2023-04-14T00:10:50.806Z,3.40
2023-04-14T00:13:17.302Z,3.00
2023-04-14T00:15:43.917Z,3.15
2023-04-14T00:18:10.663Z,2.92
2023-04-14T00:20:37.372Z,2.88
2023-04-14T00:23:03.996Z,3.13
2023-04-14T00:25:30.651Z,2.78
2023-04-14T00:27:57.269Z,2.90
2023-04-14T00:30:24.060Z,2.95
2023-04-14T00:32:50.665Z,3.17
2023-04-14T00:35:18.103Z,3.75
2023-04-14T00:37:44.531Z,3.67
2023-04-14T00:40:11.295Z,3.45
2023-04-14T00:42:47.479Z,3.35
2023-04-14T00:45:15.028Z,2.63
2023-04-14T00:47:47.044Z,2.70
2023-04-14T00:50:18.489Z,2.50
2023-04-14T00:52:47.926Z,3.28
2023-04-14T00:55:16.033Z,3.45
2023-04-14T00:57:42.780Z,3.20
2023-04-14T01:00:11.192Z,3.00
2023-04-14T01:02:38.839Z,3.20
2023-04-14T01:05:05.679Z,3.20
2023-04-14T01:07:33.364Z,3.65
2023-04-14T01:10:01.445Z,2.90
2023-04-14T01:12:56.943Z,3.45
2023-04-14T01:15:48.044Z,3.28
2023-04-14T01:18:41.089Z,3.25
2023-04-14T01:21:14.261Z,3.13
2023-04-14T01:24:19.488Z,3.50
2023-04-14T01:26:46.964Z,3.00
2023-04-14T01:29:56.132Z,3.10
2023-04-14T01:32:25.721Z,3.40
2023-04-14T01:35:05.707Z,3.10
2023-04-14T01:37:34.912Z,3.05
2023-04-14T01:40:05.845Z,3.60
2023-04-14T01:42:36.677Z,3.60
2023-04-14T01:45:33.756Z,3.33
2023-04-14T01:48:00.680Z,3.60
2023-04-14T01:50:28.566Z,3.05
2023-04-14T01:52:55.738Z,2.97
2023-04-14T01:55:26.439Z,2.90
2023-04-14T01:57:54.311Z,3.10
2023-04-14T02:00:24.033Z,3.20
2023-04-14T02:02:55.084Z,3.70
2023-04-14T02:05:22.663Z,3.33
2023-04-14T02:07:51.484Z,3.20
2023-04-14T02:10:21.282Z,3.40
2023-04-14T02:12:51.116Z,3.35
2023-04-14T02:15:18.660Z,3.17
2023-04-14T02:17:48.328Z,3.28
2023-04-14T02:20:15.872Z,3.40
2023-04-14T02:22:42.699Z,3.35
2023-04-14T02:25:09.852Z,3.45
2023-04-14T02:27:54.994Z,3.58
2023-04-14T02:30:30.028Z,4.15
2023-04-14T02:33:01.882Z,3.80
2023-04-14T02:35:31.989Z,3.17
2023-04-14T02:38:10.249Z,3.25
2023-04-14T02:40:41.140Z,3.47
2023-04-14T02:43:13.488Z,3.35
2023-04-14T02:45:45.168Z,3.08
2023-04-14T02:48:15.307Z,3.45
2023-04-14T02:50:49.006Z,3.33
2023-04-14T02:53:22.054Z,3.35
2023-04-14T02:55:52.136Z,3.58
2023-04-14T02:58:20.755Z,3.30
2023-04-14T03:00:47.766Z,3.33
2023-04-14T03:03:16.131Z,3.35
2023-04-14T03:05:44.293Z,3.55
2023-04-14T03:08:12.515Z,3.28
2023-04-14T03:10:44.786Z,3.53
2023-04-14T03:13:13.554Z,3.22
2023-04-14T03:15:41.978Z,3.60
2023-04-14T03:18:09.589Z,4.03
2023-04-14T03:20:37.922Z,3.47
2023-04-14T03:23:07.736Z,3.85
2023-04-14T03:25:41.574Z,3.50
2023-04-14T03:28:19.288Z,3.80
2023-04-14T03:30:51.921Z,3.90
2023-04-14T03:33:23.571Z,4.18
2023-04-14T03:35:53.238Z,4.18
2023-04-14T03:38:21.343Z,4.13
2023-04-14T03:40:49.064Z,4.10
2023-04-14T03:43:22.629Z,3.88
2023-04-14T03:45:56.920Z,3.92
2023-04-14T03:48:26.409Z,4.30
2023-04-14T03:50:55.024Z,3.85
2023-04-14T03:53:22.014Z,4.03
2023-04-14T03:55:51.517Z,3.83
2023-04-14T03:58:18.911Z,4.05
2023-04-14T04:00:48.341Z,4.10
2023-04-14T04:03:16.119Z,3.90
2023-04-14T04:05:44.630Z,4.00
2023-04-14T04:08:12.744Z,4.28
2023-04-14T04:10:40.673Z,4.28
2023-04-14T04:13:12.659Z,3.60
2023-04-14T04:15:40.884Z,3.53
2023-04-14T04:18:08.671Z,3.80
2023-04-14T04:20:38.592Z,3.67
2023-04-14T04:23:07.476Z,3.80
2023-04-14T04:25:39.531Z,3.53
2023-04-14T04:28:14.227Z,3.95
2023-04-14T04:30:41.989Z,3.90
2023-04-14T04:33:11.068Z,4.07
2023-04-14T04:35:39.352Z,3.80
2023-04-14T04:38:11.314Z,3.70
2023-04-14T04:40:41.224Z,3.95
2023-04-14T04:43:18.197Z,3.45
2023-04-14T04:46:25.303Z,3.92
2023-04-14T04:48:55.475Z,3.47
2023-04-14T04:51:25.486Z,3.70
2023-04-14T04:53:52.515Z,3.70
2023-04-14T04:56:19.109Z,3.67
2023-04-14T04:58:46.837Z,3.72
2023-04-14T05:01:14.944Z,3.20
2023-04-14T05:03:42.485Z,3.47
2023-04-14T05:06:09.106Z,3.38
2023-04-14T05:08:35.618Z,3.65
2023-04-14T05:11:02.125Z,3.33
2023-04-14T05:13:28.742Z,3.47
2023-04-14T05:16:15.292Z,3.72
2023-04-14T05:18:42.299Z,4.10
2023-04-14T05:21:13.582Z,4.00
2023-04-14T05:23:42.240Z,3.47
2023-04-14T05:26:30.943Z,3.47
2023-04-14T05:28:56.099Z,4.00
2023-04-14T05:31:23.092Z,4.10
2023-04-14T05:33:49.631Z,4.25
2023-04-14T05:36:16.249Z,4.35
2023-04-14T05:38:43.029Z,5.15
2023-04-14T05:41:09.696Z,4.85
2023-04-14T05:43:36.950Z,4.90
2023-04-14T05:46:03.756Z,5.05
2023-04-14T05:48:31.134Z,4.55
2023-04-14T05:50:57.936Z,4.85
2023-04-14T05:53:24.593Z,4.75
2023-04-14T05:55:51.922Z,4.53
2023-04-14T05:58:18.540Z,4.57
2023-04-14T06:00:45.035Z,5.05
2023-04-14T06:03:11.743Z,4.65
2023-04-14T06:05:38.523Z,4.72
2023-04-14T06:08:05.261Z,4.60
2023-04-14T06:10:32.159Z,4.88
2023-04-14T06:12:58.811Z,4.43
2023-04-14T06:15:28.245Z,4.38
2023-04-14T06:17:55.032Z,4.45
2023-04-14T06:20:22.040Z,3.95
2023-04-14T06:22:48.598Z,4.32
2023-04-14T06:25:15.248Z,4.35
2023-04-14T06:27:41.781Z,4.65
2023-04-14T06:30:08.749Z,4.53
2023-04-14T06:32:35.453Z,4.60
2023-04-14T06:35:04.795Z,4.95
2023-04-14T06:37:32.122Z,4.45
2023-04-14T06:39:58.669Z,4.28
2023-04-14T06:42:25.698Z,4.28
2023-04-14T06:44:52.305Z,4.10
2023-04-14T06:47:20.861Z,4.18
2023-04-14T06:49:47.739Z,3.83
2023-04-14T06:52:14.307Z,4.15
2023-04-14T06:54:42.275Z,4.05
2023-04-14T06:57:09.132Z,4.15
2023-04-14T06:59:36.627Z,4.35
2023-04-14T07:02:03.252Z,4.20
2023-04-14T07:04:29.927Z,4.25
2023-04-14T07:07:02.480Z,4.38
2023-04-14T07:09:29.393Z,4.57
2023-04-14T07:11:57.618Z,4.53
2023-04-14T07:14:24.774Z,3.90
2023-04-14T07:16:52.228Z,4.10
2023-04-14T07:19:19.189Z,3.45
2023-04-14T07:21:46.536Z,4.07
2023-04-14T07:24:15.193Z,4.20
2023-04-14T07:26:42.834Z,3.95
2023-04-14T07:29:09.445Z,4.20
2023-04-14T07:31:37.985Z,4.07
2023-04-14T07:34:04.688Z,4.00
2023-04-14T07:36:32.461Z,3.90
2023-04-14T07:38:59.021Z,3.42
2023-04-14T07:41:26.843Z,3.35
2023-04-14T07:43:55.681Z,3.72
2023-04-14T07:46:22.372Z,4.15
2023-04-14T07:48:48.963Z,3.17
2023-04-14T07:51:15.724Z,4.15
2023-04-14T07:53:44.842Z,4.25
2023-04-14T07:56:12.414Z,3.60
2023-04-14T07:58:39.096Z,4.20
2023-04-14T08:01:06.372Z,4.30
2023-04-14T08:03:33.323Z,3.90
2023-04-14T08:05:59.994Z,3.50
2023-04-14T08:08:28.192Z,3.92
2023-04-14T08:10:54.723Z,3.78
2023-04-14T08:13:21.254Z,4.05
2023-04-14T08:15:47.864Z,3.75
2023-04-14T08:18:14.347Z,3.60
2023-04-14T08:20:41.524Z,3.67
2023-04-14T08:23:08.137Z,3.22
2023-04-14T08:25:34.681Z,3.90
2023-04-14T08:28:01.230Z,3.65
2023-04-14T08:30:27.853Z,3.42
2023-04-14T08:32:54.477Z,3.38
2023-04-14T08:35:38.112Z,3.80
2023-04-14T08:38:07.952Z,3.70
2023-04-14T08:40:39.711Z,3.50
2023-04-14T08:43:06.656Z,3.63
2023-04-14T08:45:33.923Z,3.47
2023-04-14T08:48:02.893Z,3.10
2023-04-14T08:50:43.447Z,3.40
2023-04-14T08:53:10.569Z,3.40
2023-04-14T08:55:43.242Z,3.60
2023-04-14T08:58:12.533Z,3.40
2023-04-14T09:00:40.342Z,3.28
2023-04-14T09:03:09.017Z,3.42
2023-04-14T09:05:36.501Z,3.38
2023-04-14T09:08:04.019Z,3.40
2023-04-14T09:10:31.290Z,2.97
2023-04-14T09:13:00.174Z,3.35
2023-04-14T09:15:29.000Z,3.30
2023-04-14T09:17:56.134Z,3.55
2023-04-14T09:20:38.326Z,3.40
2023-04-14T09:23:08.855Z,3.97
2023-04-14T09:25:36.506Z,3.50
2023-04-14T09:28:03.084Z,4.20
2023-04-14T09:30:31.508Z,3.75
2023-04-14T09:32:58.122Z,4.05
2023-04-14T09:35:43.614Z,4.47
2023-04-14T09:38:10.195Z,4.32
2023-04-14T09:40:39.034Z,4.28
2023-04-14T09:43:05.977Z,4.35
2023-04-14T09:45:42.043Z,3.97
2023-04-14T09:48:10.685Z,3.97
2023-04-14T09:50:57.767Z,3.90
2023-04-14T09:53:29.609Z,4.05
2023-04-14T09:55:57.629Z,4.07
2023-04-14T09:58:26.480Z,3.78
2023-04-14T10:00:54.453Z,3.70
2023-04-14T10:03:38.157Z,3.83
2023-04-14T10:06:21.130Z,3.78
2023-04-14T10:08:56.236Z,3.90
2023-04-14T10:11:27.595Z,3.45
2023-04-14T10:13:56.218Z,3.58
2023-04-14T10:16:24.258Z,4.38
2023-04-14T10:18:52.926Z,4.00
2023-04-14T10:21:22.367Z,3.78
2023-04-14T10:23:49.165Z,4.55
2023-04-14T10:26:16.264Z,4.10
2023-04-14T10:28:48.952Z,4.25
2023-04-14T10:31:32.813Z,4.20
2023-04-14T10:34:10.950Z,4.05
2023-04-14T10:36:38.757Z,4.32
2023-04-14T10:39:06.622Z,3.53
2023-04-14T10:41:50.780Z,4.00
2023-04-14T10:44:29.233Z,4.07
2023-04-14T10:46:57.039Z,3.70
2023-04-14T10:49:37.091Z,3.97
2023-04-14T10:52:06.541Z,3.88
2023-04-14T10:54:52.016Z,3.88
2023-04-14T10:57:22.493Z,3.42
2023-04-14T10:59:49.215Z,3.67
2023-04-14T11:02:33.785Z,3.40
2023-04-14T11:05:11.976Z,3.33
2023-04-14T11:07:44.930Z,3.10
2023-04-14T11:10:17.907Z,3.70
2023-04-14T11:12:45.951Z,3.63
2023-04-14T11:15:13.432Z,3.13
2023-04-14T11:17:41.260Z,3.30
2023-04-14T11:20:22.244Z,3.08
2023-04-14T11:22:50.801Z,3.22
2023-04-14T11:25:20.795Z,2.90
2023-04-14T11:27:48.800Z,3.25
2023-04-14T11:30:17.412Z,2.92
2023-04-14T11:32:52.207Z,2.60
2023-04-14T11:35:20.272Z,2.80
2023-04-14T11:37:47.380Z,2.30
2023-04-14T11:40:15.514Z,2.17
2023-04-14T11:42:49.399Z,2.10
2023-04-14T11:45:17.326Z,1.90
2023-04-14T11:47:55.833Z,1.70
2023-04-14T11:50:22.348Z,1.75
2023-04-14T11:52:48.912Z,1.42
2023-04-14T11:55:15.652Z,1.48
2023-04-14T11:57:47.074Z,1.70
2023-04-14T12:00:14.063Z,1.95
2023-04-14T12:02:47.077Z,2.05
2023-04-14T12:05:21.744Z,2.28
2023-04-14T12:07:49.631Z,1.80
2023-04-14T12:10:16.314Z,1.70
2023-04-14T12:12:42.858Z,2.03
2023-04-14T12:15:10.028Z,1.83
2023-04-14T12:17:37.271Z,2.15
2023-04-14T12:20:05.520Z,2.00
2023-04-14T12:22:32.241Z,2.25
2023-04-14T12:24:58.809Z,2.10
2023-04-14T12:27:27.452Z,2.05
2023-04-14T12:29:53.961Z,2.03
2023-04-14T12:32:22.302Z,2.30
2023-04-14T12:34:58.879Z,1.98
2023-04-14T12:37:26.959Z,1.88
2023-04-14T12:39:58.592Z,1.77
2023-04-14T12:42:27.056Z,1.80
2023-04-14T12:45:01.309Z,1.90
2023-04-14T12:47:32.671Z,1.65
2023-04-14T12:50:00.997Z,1.80
2023-04-14T12:52:38.153Z,2.10
2023-04-14T12:55:06.639Z,1.48
2023-04-14T12:57:34.743Z,1.83
2023-04-14T13:00:02.018Z,1.33
2023-04-14T13:02:30.172Z,1.85
2023-04-14T13:04:57.787Z,1.60
2023-04-14T13:07:24.546Z,1.58
2023-04-14T13:09:52.131Z,1.50
2023-04-14T13:12:18.975Z,1.13
2023-04-14T13:14:45.747Z,0.90
2023-04-14T13:17:12.783Z,1.13
2023-04-14T13:19:39.612Z,1.42
2023-04-14T13:22:06.564Z,1.50
2023-04-14T13:24:33.149Z,1.80
2023-04-14T13:26:59.723Z,2.00
2023-04-14T13:29:26.594Z,2.17
2023-04-14T13:31:53.208Z,1.90
2023-04-14T13:34:19.711Z,1.83
2023-04-14T13:36:46.429Z,1.80
2023-04-14T13:39:14.094Z,1.67
2023-04-14T13:41:40.640Z,1.50
2023-04-14T13:44:07.471Z,1.52
2023-04-14T13:46:40.485Z,1.15
2023-04-14T13:49:07.562Z,0.93
2023-04-14T13:51:34.060Z,0.80
2023-04-14T13:54:00.824Z,0.85
2023-04-14T13:56:27.565Z,1.08
2023-04-14T13:58:54.365Z,0.80
2023-04-14T14:01:21.400Z,0.75
2023-04-14T14:03:48.267Z,0.73
2023-04-14T14:06:15.430Z,0.70
2023-04-14T14:08:42.462Z,0.75
2023-04-14T14:11:09.874Z,0.70
2023-04-14T14:13:38.646Z,0.60
2023-04-14T14:16:07.224Z,1.10
2023-04-14T14:18:35.913Z,0.50
2023-04-14T14:21:02.505Z,0.90
2023-04-14T14:23:29.060Z,0.70
2023-04-14T14:25:55.967Z,0.80
2023-04-14T14:28:22.530Z,0.57
2023-04-14T14:30:49.694Z,0.80
2023-04-14T14:33:16.370Z,0.70
2023-04-14T14:35:42.930Z,0.90
2023-04-14T14:42:08.614Z,1.20
2023-04-14T14:44:35.390Z,1.02
2023-04-14T14:47:01.938Z,0.85
2023-04-14T14:49:28.906Z,1.00
2023-04-14T14:51:55.402Z,1.10
2023-04-14T14:54:21.909Z,0.82
2023-04-14T14:56:48.431Z,0.75
2023-04-14T14:59:16.187Z,0.65
2023-04-14T15:01:42.752Z,0.73
2023-04-14T15:04:10.543Z,0.80
2023-04-14T15:06:37.700Z,0.77
2023-04-14T15:09:05.442Z,0.93
2023-04-14T15:11:32.099Z,1.33
2023-04-14T15:13:59.003Z,0.60
2023-04-14T15:16:25.710Z,0.68
2023-04-14T15:21:41.185Z,0.68
2023-04-14T15:24:09.799Z,0.82
2023-04-14T15:26:36.685Z,0.90
2023-04-14T15:29:03.717Z,1.10
2023-04-14T15:31:30.597Z,0.80
2023-04-14T15:34:00.101Z,0.80
2023-04-14T15:36:29.551Z,0.60
2023-04-14T15:38:56.469Z,0.52
2023-04-14T15:41:23.170Z,0.63
2023-04-14T15:43:50.282Z,0.93
2023-04-14T15:46:17.087Z,1.02
2023-04-14T15:48:43.622Z,1.02
2023-04-14T15:51:11.561Z,1.08
2023-04-14T15:53:38.315Z,1.23
2023-04-14T15:56:07.899Z,1.45
2023-04-14T15:58:34.924Z,1.75
2023-04-14T16:01:06.727Z,1.67
2023-04-14T16:03:33.478Z,1.60
2023-04-14T16:06:04.065Z,1.50
2023-04-14T16:08:30.748Z,1.33
2023-04-14T16:10:57.615Z,1.13
2023-04-14T16:13:24.200Z,1.10
2023-04-14T16:15:50.726Z,1.48
2023-04-14T16:18:17.356Z,1.58
2023-04-14T16:20:43.850Z,1.63
2023-04-14T16:23:10.381Z,1.75
2023-04-14T16:25:37.752Z,1.98
2023-04-14T16:28:04.455Z,1.52
2023-04-14T16:30:31.752Z,2.20
2023-04-14T16:33:05.620Z,1.85
2023-04-14T16:35:34.432Z,0.80
2023-04-14T16:38:01.073Z,0.70
2023-04-14T16:40:27.650Z,0.85
2023-04-14T16:42:54.293Z,0.80
2023-04-14T16:45:21.351Z,0.82
2023-04-14T16:47:48.068Z,0.80
2023-04-14T16:50:15.193Z,0.95
2023-04-14T16:52:41.814Z,1.10
2023-04-14T16:55:08.982Z,1.00
2023-04-14T16:57:35.706Z,0.98
2023-04-14T17:00:03.281Z,1.08
2023-04-14T17:02:30.064Z,1.30
2023-04-14T17:04:58.406Z,1.55
2023-04-14T17:07:24.944Z,1.40
2023-04-14T17:09:51.567Z,1.08
2023-04-14T17:12:18.377Z,1.05
2023-04-14T17:14:45.123Z,1.35
2023-04-14T17:17:11.798Z,1.35
2023-04-14T17:19:38.454Z,1.40
2023-04-14T17:22:05.078Z,1.38
2023-04-14T17:24:32.680Z,1.60
2023-04-14T17:27:00.709Z,1.55
2023-04-14T17:29:27.374Z,1.90
2023-04-14T17:31:54.458Z,1.75
2023-04-14T17:34:21.107Z,1.75
2023-04-14T17:36:47.688Z,1.70
2023-04-14T17:39:14.491Z,1.70
2023-04-14T17:41:41.144Z,1.45
2023-04-14T17:44:07.999Z,2.10
2023-04-14T17:46:34.916Z,2.22
2023-04-14T17:49:01.934Z,1.52
2023-04-14T17:51:30.526Z,2.00
2023-04-14T17:53:58.036Z,2.00
2023-04-14T17:56:25.442Z,1.77
2023-04-14T17:58:52.534Z,2.05
2023-04-14T18:01:19.758Z,2.00
2023-04-14T18:03:46.594Z,2.10
2023-04-14T18:06:13.491Z,1.92
2023-04-14T18:08:40.107Z,2.30
2023-04-14T18:11:07.741Z,3.05
2023-04-14T18:13:36.214Z,3.25
2023-04-14T18:16:02.755Z,2.13
2023-04-14T18:18:29.471Z,2.42
2023-04-14T18:20:56.002Z,2.28
2023-04-14T18:23:22.709Z,2.42
2023-04-14T18:28:28.319Z,2.30
2023-04-14T18:30:55.885Z,2.45
2023-04-14T18:33:22.937Z,2.60
2023-04-14T18:35:51.047Z,2.58
2023-04-14T18:38:21.121Z,2.33
2023-04-14T18:40:48.448Z,2.72
2023-04-14T18:43:15.697Z,2.40
2023-04-14T18:45:46.491Z,2.78
2023-04-14T18:48:14.328Z,2.75
2023-04-14T18:50:42.264Z,4.25
2023-04-14T18:53:10.144Z,2.70
2023-04-14T18:55:45.235Z,2.47
2023-04-14T18:58:13.013Z,3.03
2023-04-14T19:00:54.060Z,2.88
2023-04-14T19:03:20.745Z,2.80
2023-04-14T19:05:49.505Z,2.50
2023-04-14T19:08:16.817Z,2.80
2023-04-14T19:10:46.963Z,2.90
2023-04-14T19:13:14.583Z,3.10
2023-04-14T19:15:41.896Z,2.78
2023-04-14T19:18:09.293Z,2.83
2023-04-14T19:20:36.990Z,2.70
2023-04-14T19:23:04.494Z,2.50
2023-04-14T19:25:31.376Z,2.60
2023-04-14T19:27:59.767Z,3.17
2023-04-14T19:30:26.335Z,2.55
2023-04-14T19:32:54.441Z,2.92
2023-04-14T19:35:22.444Z,2.55
2023-04-14T19:37:48.944Z,2.85
2023-04-14T19:40:15.601Z,2.90
2023-04-14T19:42:42.262Z,2.20
2023-04-14T19:45:10.232Z,2.42
2023-04-14T19:47:36.771Z,2.33
2023-04-14T19:50:04.315Z,2.30
2023-04-14T19:52:31.074Z,1.98
2023-04-14T19:54:58.222Z,2.33
2023-04-14T19:57:24.986Z,2.10
2023-04-14T19:59:51.535Z,1.88
2023-04-14T20:05:14.007Z,2.08
2023-04-14T20:07:40.706Z,2.00
2023-04-14T20:10:08.481Z,2.30
2023-04-14T20:12:35.617Z,2.10
2023-04-14T20:17:30.053Z,2.10
2023-04-14T20:19:58.192Z,2.15
2023-04-14T20:22:25.649Z,1.80
2023-04-14T20:24:52.152Z,1.90
2023-04-14T20:27:18.820Z,1.90
2023-04-14T20:29:46.440Z,2.00
2023-04-14T20:32:13.013Z,1.90
2023-04-14T20:34:39.727Z,2.00
2023-04-14T20:37:06.718Z,1.77
2023-04-14T20:39:33.875Z,1.73
2023-04-14T20:42:00.735Z,2.10
2023-04-14T20:44:27.361Z,1.95
2023-04-14T20:46:54.320Z,1.70
2023-04-14T20:49:21.738Z,2.33
2023-04-14T20:51:48.888Z,2.08
2023-04-14T20:54:15.689Z,2.30
2023-04-14T20:56:42.187Z,1.90
2023-04-14T20:59:09.381Z,1.85
2023-04-14T21:01:37.083Z,2.05
2023-04-14T21:04:03.854Z,2.08
2023-04-14T21:06:33.576Z,2.00
2023-04-14T21:09:00.530Z,2.08
2023-04-14T21:11:27.340Z,2.30
2023-04-14T21:15:30.321Z,2.38
2023-04-14T21:16:40.327Z,2.20
2023-04-14T21:19:22.354Z,2.40
2023-04-14T21:21:48.875Z,2.10
2023-04-14T21:24:15.354Z,2.10
2023-04-14T21:26:41.857Z,2.80
2023-04-14T21:29:08.353Z,2.55
2023-04-14T21:31:34.979Z,2.35
2023-04-14T21:34:01.637Z,2.25
2023-04-14T21:36:44.330Z,2.22
2023-04-14T21:39:10.858Z,2.13
2023-04-14T21:41:37.797Z,2.40
2023-04-14T21:44:04.294Z,2.40
2023-04-14T21:46:33.680Z,2.35
2023-04-14T21:49:00.530Z,2.25
2023-04-14T21:51:27.603Z,2.30
2023-04-14T21:53:54.196Z,2.53
2023-04-14T21:56:20.906Z,2.58
2023-04-14T21:58:47.552Z,2.25
2023-04-14T22:01:14.057Z,2.13
2023-04-14T22:03:41.474Z,2.08
2023-04-14T22:06:10.020Z,2.42
2023-04-14T22:08:38.135Z,2.20
2023-04-14T22:11:04.850Z,2.10
2023-04-14T22:13:31.422Z,2.42
2023-04-14T22:15:58.201Z,1.83
2023-04-14T22:18:25.109Z,2.22
2023-04-14T22:20:51.770Z,2.25
2023-04-14T22:23:18.237Z,2.35
2023-04-14T22:25:45.020Z,2.40
2023-04-14T22:28:12.035Z,2.20
2023-04-14T22:30:53.142Z,2.78
2023-04-14T22:33:20.024Z,2.03
2023-04-14T22:35:46.663Z,2.40
2023-04-14T22:38:13.482Z,2.45
2023-04-14T22:40:40.071Z,2.50
2023-04-14T22:43:08.920Z,2.35
2023-04-14T22:45:39.439Z,2.42
2023-04-14T22:48:08.870Z,2.55
2023-04-14T22:50:39.185Z,1.90
2023-04-14T22:53:06.634Z,2.47
2023-04-14T22:55:33.191Z,2.10
2023-04-14T22:57:59.724Z,2.28
2023-04-14T23:00:43.237Z,2.40
2023-04-14T23:03:09.961Z,2.53
2023-04-14T23:05:36.741Z,2.20
2023-04-14T23:08:03.407Z,2.10
2023-04-14T23:10:29.896Z,2.28
2023-04-14T23:12:56.486Z,2.30
2023-04-14T23:15:23.028Z,2.75
2023-04-14T23:17:49.503Z,2.30
2023-04-14T23:20:16.418Z,2.42
2023-04-14T23:22:42.938Z,2.45
2023-04-14T23:25:09.621Z,2.85
2023-04-14T23:27:36.574Z,2.95
2023-04-14T23:30:03.296Z,2.55
2023-04-14T23:32:30.002Z,3.17
2023-04-14T23:34:57.012Z,2.70
2023-04-14T23:37:23.993Z,2.65
2023-04-14T23:39:50.440Z,2.85
2023-04-14T23:42:19.961Z,3.13
2023-04-14T23:44:46.486Z,2.67
2023-04-14T23:47:13.445Z,2.72
2023-04-14T23:49:39.987Z,3.03
2023-04-14T23:52:06.865Z,2.83
2023-04-14T23:54:33.507Z,2.67
2023-04-14T23:57:00.453Z,2.83
2023-04-14T23:59:27.471Z,3.17
